createdAt,value
2022-09-28T00:03:27.083Z,79.07
2022-09-28T00:06:51.331Z,79.14
2022-09-28T00:10:18.303Z,79.35
2022-09-28T00:13:40.116Z,79.41
2022-09-28T00:17:18.222Z,79.18
2022-09-28T00:24:15.334Z,79.31
2022-09-28T00:31:39.360Z,79.63
2022-09-28T00:35:07.799Z,79.33
2022-09-28T00:38:20.491Z,79.73
2022-09-28T00:41:42.789Z,79.34
2022-09-28T00:48:00.648Z,79.70
2022-09-28T00:50:50.265Z,79.67
2022-09-28T00:53:53.995Z,79.70
2022-09-28T01:00:19.179Z,79.83
2022-09-28T01:07:25.830Z,79.88
2022-09-28T01:10:58.226Z,79.90
2022-09-28T01:14:46.171Z,79.93
2022-09-28T01:18:41.407Z,80.12
2022-09-28T01:22:05.856Z,80.05
2022-09-28T01:28:56.230Z,80.08
2022-09-28T01:32:17.007Z,80.16
2022-09-28T01:35:37.086Z,80.06
2022-09-28T01:38:54.213Z,80.23
2022-09-28T01:42:33.176Z,79.92
2022-09-28T01:45:51.872Z,80.03
2022-09-28T01:59:56.819Z,80.39
2022-09-28T02:03:07.115Z,80.60
2022-09-28T02:10:29.491Z,80.45
2022-09-28T02:17:06.807Z,80.65
2022-09-28T02:20:24.754Z,80.94
2022-09-28T02:27:12.770Z,80.74
2022-09-28T02:30:20.770Z,80.79
2022-09-28T02:34:04.266Z,80.95
2022-09-28T02:37:43.774Z,80.78
2022-09-28T02:40:49.070Z,80.86
2022-09-28T02:44:41.553Z,80.82
2022-09-28T02:48:03.540Z,80.85
2022-09-28T02:51:40.026Z,80.87
2022-09-28T02:54:58.799Z,80.73
2022-09-28T02:58:18.203Z,80.99
2022-09-28T03:02:23.834Z,80.90
2022-09-28T03:05:22.229Z,81.11
2022-09-28T03:08:09.331Z,81.30
2022-09-28T03:11:06.592Z,81.28
2022-09-28T03:20:54.937Z,81.16
2022-09-28T03:26:58.273Z,81.12
2022-09-28T03:29:42.975Z,81.25
2022-09-28T03:36:25.575Z,81.16
2022-09-28T03:40:01.162Z,81.48
2022-09-28T03:43:05.575Z,81.27
2022-09-28T03:46:15.044Z,81.02
2022-09-28T03:49:31.323Z,81.16
2022-09-28T03:56:08.096Z,81.34
2022-09-28T03:58:54.792Z,81.41
2022-09-28T04:02:28.016Z,81.55
2022-09-28T04:06:12.136Z,81.43
2022-09-28T04:09:26.856Z,81.63
2022-09-28T04:12:12.301Z,81.67
2022-09-28T04:14:55.233Z,81.70
2022-09-28T04:18:33.996Z,81.74
2022-09-28T04:22:04.407Z,81.72
2022-09-28T04:25:25.478Z,81.57
2022-09-28T04:28:45.757Z,81.63
2022-09-28T04:36:25.779Z,81.88
2022-09-28T04:43:15.067Z,81.81
2022-09-28T04:47:05.366Z,81.85
2022-09-28T05:07:26.940Z,82.12
2022-09-28T05:10:15.031Z,82.15
2022-09-28T05:13:20.151Z,82.31
2022-09-28T05:16:38.466Z,82.24
2022-09-28T05:19:37.910Z,82.16
2022-09-28T05:25:55.430Z,82.11
2022-09-28T05:29:32.701Z,82.07
2022-09-28T05:47:51.167Z,82.29
2022-09-28T05:51:02.027Z,82.48
2022-09-28T05:53:45.534Z,82.55
2022-09-28T05:56:20.414Z,82.44
2022-09-28T05:58:57.733Z,82.51
2022-09-28T06:01:36.391Z,82.68
2022-09-28T06:04:13.128Z,82.60
2022-09-28T06:07:03.580Z,82.57
2022-09-28T06:09:42.557Z,82.62
2022-09-28T06:12:24.216Z,82.58
2022-09-28T06:15:05.454Z,82.60
2022-09-28T06:18:02.138Z,82.65
2022-09-28T06:21:06.971Z,82.65
2022-09-28T06:23:49.138Z,82.53
2022-09-28T06:26:26.416Z,82.61
2022-09-28T06:29:14.714Z,82.71
2022-09-28T06:32:04.959Z,82.68
2022-09-28T06:34:38.752Z,82.71
2022-09-28T06:37:10.965Z,82.56
2022-09-28T06:39:44.868Z,82.66
2022-09-28T06:42:48.171Z,82.62
2022-09-28T06:45:35.787Z,82.62
2022-09-28T06:48:36.674Z,82.85
2022-09-28T06:51:18.671Z,82.93
2022-09-28T06:54:15.206Z,82.69
2022-09-28T06:57:15.852Z,82.75
2022-09-28T06:59:48.553Z,82.56
2022-09-28T07:02:23.911Z,82.58
2022-09-28T07:05:40.823Z,82.71
2022-09-28T07:08:32.277Z,82.72
2022-09-28T07:11:30.849Z,82.83
2022-09-28T07:14:31.110Z,82.74
2022-09-28T07:17:13.660Z,82.53
2022-09-28T07:20:00.096Z,82.45
2022-09-28T07:22:43.852Z,82.26
2022-09-28T07:25:27.240Z,82.24
2022-09-28T07:28:15.450Z,82.53
2022-09-28T07:31:12.103Z,81.72
2022-09-28T07:33:57.713Z,81.96
2022-09-28T07:36:42.449Z,81.86
2022-09-28T07:39:13.387Z,81.37
2022-09-28T07:41:46.214Z,81.30
2022-09-28T07:44:19.930Z,81.37
2022-09-28T07:47:00.200Z,81.68
2022-09-28T07:49:58.188Z,81.00
2022-09-28T07:52:54.462Z,80.71
2022-09-28T07:55:37.418Z,80.58
2022-09-28T07:58:25.817Z,81.02
2022-09-28T08:04:36.783Z,81.28
2022-09-28T08:07:23.654Z,80.77
2022-09-28T08:10:00.713Z,81.25
2022-09-28T08:12:31.256Z,81.12
2022-09-28T08:15:28.104Z,81.12
2022-09-28T08:18:27.075Z,81.47
2022-09-28T08:21:25.327Z,81.12
2022-09-28T08:24:01.184Z,80.87
2022-09-28T08:29:48.421Z,81.16
2022-09-28T08:35:44.038Z,80.39
2022-09-28T08:38:20.870Z,80.73
2022-09-28T08:41:44.352Z,80.46
2022-09-28T08:47:54.000Z,80.96
2022-09-28T08:51:03.167Z,80.59
2022-09-28T08:53:58.650Z,79.94
2022-09-28T08:56:57.861Z,79.80
2022-09-28T08:59:37.614Z,79.56
2022-09-28T09:02:21.654Z,79.65
2022-09-28T09:04:56.304Z,79.48
2022-09-28T09:08:10.739Z,79.73
2022-09-28T09:10:58.773Z,80.13
2022-09-28T09:13:54.982Z,80.54
2022-09-28T09:17:08.253Z,79.60
2022-09-28T09:20:16.894Z,79.27
2022-09-28T09:23:25.441Z,78.54
2022-09-28T09:26:09.064Z,78.91
2022-09-28T09:29:09.244Z,78.12
2022-09-28T09:32:05.114Z,77.96
2022-09-28T09:35:10.706Z,77.91
2022-09-28T09:38:28.730Z,78.50
2022-09-28T09:41:52.045Z,78.01
2022-09-28T09:44:49.774Z,77.44
2022-09-28T09:47:50.676Z,77.45
2022-09-28T09:50:41.859Z,77.55
2022-09-28T09:53:26.683Z,77.28
2022-09-28T09:56:31.717Z,77.21
2022-09-28T09:59:21.037Z,77.54
2022-09-28T10:02:27.193Z,77.16
2022-09-28T10:05:37.630Z,77.53
2022-09-28T10:08:44.804Z,76.91
2022-09-28T10:11:28.785Z,76.63
2022-09-28T10:14:02.777Z,76.70
2022-09-28T10:17:01.835Z,75.85
2022-09-28T10:19:52.541Z,75.79
2022-09-28T10:22:54.377Z,75.80
2022-09-28T10:25:25.328Z,75.49
2022-09-28T10:28:00.683Z,75.27
2022-09-28T10:30:43.849Z,74.72
2022-09-28T10:33:39.414Z,74.50
2022-09-28T10:36:11.404Z,74.19
2022-09-28T10:38:50.713Z,74.83
2022-09-28T10:41:33.375Z,74.83
2022-09-28T10:45:02.042Z,74.79
2022-09-28T10:48:01.209Z,74.86
2022-09-28T10:50:35.668Z,74.71
2022-09-28T10:53:28.754Z,74.64
2022-09-28T10:56:27.081Z,74.80
2022-09-28T10:59:06.515Z,75.01
2022-09-28T11:02:15.151Z,74.06
2022-09-28T11:05:29.289Z,74.36
2022-09-28T11:08:24.660Z,74.44
2022-09-28T11:11:13.428Z,73.16
2022-09-28T11:13:58.727Z,73.11
2022-09-28T11:16:38.627Z,73.38
2022-09-28T11:19:32.317Z,72.24
2022-09-28T11:22:41.407Z,71.75
2022-09-28T11:25:23.266Z,72.79
2022-09-28T11:28:06.736Z,72.53
2022-09-28T11:30:53.712Z,72.25
2022-09-28T11:33:49.720Z,72.37
2022-09-28T11:36:44.438Z,72.48
2022-09-28T11:40:05.860Z,73.31
2022-09-28T11:43:11.431Z,73.39
2022-09-28T11:46:00.608Z,72.64
2022-09-28T11:49:08.719Z,71.87
2022-09-28T11:51:49.846Z,72.08
2022-09-28T11:54:48.612Z,71.40
2022-09-28T11:57:25.788Z,70.90
2022-09-28T12:00:02.269Z,71.32
2022-09-28T12:02:55.638Z,70.95
2022-09-28T12:05:35.612Z,70.90
2022-09-28T12:08:19.197Z,70.41
2022-09-28T12:11:48.850Z,70.08
2022-09-28T12:14:36.986Z,69.03
2022-09-28T12:17:22.865Z,69.17
2022-09-28T12:20:17.039Z,69.06
2022-09-28T12:23:02.405Z,68.35
2022-09-28T12:25:43.137Z,68.61
2022-09-28T12:28:45.140Z,68.88
2022-09-28T12:31:30.054Z,68.61
2022-09-28T12:34:05.858Z,68.33
2022-09-28T12:36:57.982Z,68.72
2022-09-28T12:39:58.583Z,68.96
2022-09-28T12:50:41.550Z,67.98
2022-09-28T12:57:18.501Z,68.59
2022-09-28T13:00:32.126Z,68.85
2022-09-28T13:03:57.027Z,67.84
2022-09-28T13:06:51.832Z,67.31
2022-09-28T13:09:27.176Z,67.25
2022-09-28T13:12:26.190Z,67.20
2022-09-28T13:15:14.297Z,67.35
2022-09-28T13:21:27.349Z,67.28
2022-09-28T13:25:08.435Z,67.39
2022-09-28T13:28:34.253Z,67.43
2022-09-28T13:31:54.595Z,66.98
2022-09-28T13:35:37.149Z,66.58
2022-09-28T13:45:18.171Z,66.44
2022-09-28T13:48:23.714Z,66.26
2022-09-28T13:51:20.635Z,66.15
2022-09-28T13:58:00.115Z,65.57
2022-09-28T14:01:32.998Z,64.89
2022-09-28T14:04:45.697Z,64.72
2022-09-28T14:11:29.386Z,64.75
2022-09-28T14:20:47.403Z,63.94
2022-09-28T14:24:21.740Z,63.99
2022-09-28T14:31:30.791Z,63.19
2022-09-28T14:51:56.213Z,63.19
2022-09-28T14:58:12.934Z,63.69
2022-09-28T15:02:34.906Z,63.65
2022-09-28T15:05:25.710Z,63.63
2022-09-28T15:08:48.154Z,63.91
2022-09-28T15:11:29.490Z,64.12
2022-09-28T15:18:10.712Z,64.15
2022-09-28T15:20:50.718Z,63.98
2022-09-28T15:24:05.787Z,64.03
2022-09-28T15:26:53.531Z,64.15
2022-09-28T15:29:38.111Z,64.16
2022-09-28T15:32:39.115Z,64.22
2022-09-28T15:35:33.695Z,64.31
2022-09-28T15:38:30.328Z,64.51
2022-09-28T15:44:40.672Z,64.88
2022-09-28T15:47:29.986Z,65.15
2022-09-28T15:50:05.697Z,65.33
2022-09-28T15:53:06.333Z,65.45
2022-09-28T15:55:59.540Z,65.70
2022-09-28T15:58:34.148Z,65.68
2022-09-28T16:04:26.483Z,65.77
2022-09-28T16:07:41.572Z,66.04
2022-09-28T16:10:19.991Z,65.99
2022-09-28T16:13:33.350Z,66.38
2022-09-28T16:17:26.507Z,66.55
2022-09-28T16:20:59.927Z,66.64
2022-09-28T16:23:39.076Z,66.74
2022-09-28T16:34:11.676Z,67.21
2022-09-28T16:37:11.605Z,67.33
2022-09-28T16:43:36.578Z,67.64
2022-09-28T16:46:42.193Z,67.83
2022-09-28T16:49:59.728Z,68.20
2022-09-28T16:53:52.657Z,68.18
2022-09-28T16:57:36.107Z,68.49
2022-09-28T17:04:16.953Z,68.33
2022-09-28T17:11:20.190Z,68.53
2022-09-28T17:21:36.972Z,68.70
2022-09-28T17:27:57.970Z,69.26
2022-09-28T17:30:51.768Z,69.15
2022-09-28T17:37:33.951Z,69.56
2022-09-28T17:40:38.009Z,69.39
2022-09-28T17:47:25.752Z,69.48
2022-09-28T17:50:32.702Z,69.64
2022-09-28T17:54:23.204Z,69.65
2022-09-28T18:08:01.175Z,70.52
2022-09-28T18:11:14.157Z,70.46
2022-09-28T18:14:40.631Z,70.95
2022-09-28T18:17:23.195Z,70.95
2022-09-28T18:20:30.691Z,70.92
2022-09-28T18:23:43.181Z,71.06
2022-09-28T18:33:18.682Z,71.59
2022-09-28T18:36:37.511Z,71.70
2022-09-28T18:39:48.057Z,71.72
2022-09-28T18:42:59.294Z,71.53
2022-09-28T18:45:58.674Z,71.72
2022-09-28T18:52:22.384Z,71.88
2022-09-28T18:55:28.911Z,71.86
2022-09-28T18:58:36.950Z,72.22
2022-09-28T19:01:31.088Z,72.41
2022-09-28T19:07:58.037Z,72.62
2022-09-28T19:13:59.072Z,72.70
2022-09-28T19:16:35.572Z,73.15
2022-09-28T19:19:51.474Z,72.99
2022-09-28T19:25:53.005Z,73.06
2022-09-28T19:29:06.305Z,73.12
2022-09-28T19:36:17.916Z,73.13
2022-09-28T19:46:31.451Z,73.78
2022-09-28T19:53:23.253Z,73.78
2022-09-28T19:56:40.851Z,73.94
2022-09-28T20:03:24.072Z,74.18
2022-09-28T20:07:22.955Z,74.09
2022-09-28T20:14:50.205Z,74.35
2022-09-28T20:18:27.913Z,74.56
2022-09-28T20:22:12.390Z,74.79
2022-09-28T20:38:56.095Z,74.82
2022-09-28T20:42:18.946Z,75.08
2022-09-28T20:45:33.623Z,75.02
2022-09-28T20:52:40.512Z,75.17
2022-09-28T20:56:07.056Z,75.29
2022-09-28T20:59:24.885Z,75.40
2022-09-28T21:02:37.329Z,75.64
2022-09-28T21:05:58.755Z,75.55
2022-09-28T21:16:09.869Z,75.73
2022-09-28T21:31:16.238Z,76.16
2022-09-28T22:03:59.715Z,76.81
2022-09-28T22:22:31.508Z,77.35
2022-09-28T22:29:47.556Z,77.32
2022-09-28T22:33:38.660Z,77.14
2022-09-28T22:41:16.275Z,77.38
2022-09-28T22:44:53.819Z,77.37
2022-09-28T22:48:51.109Z,77.40
2022-09-28T22:52:05.197Z,77.53
2022-09-28T22:55:51.515Z,77.89
2022-09-28T22:59:31.992Z,77.59
2022-09-28T23:03:17.891Z,77.60
2022-09-28T23:06:45.608Z,77.66
2022-09-28T23:10:22.214Z,77.91
2022-09-28T23:13:50.005Z,77.94
2022-09-28T23:21:23.227Z,78.00
2022-09-28T23:28:07.134Z,78.10
2022-09-28T23:31:58.989Z,78.11
2022-09-28T23:39:32.033Z,78.43
2022-09-28T23:43:14.724Z,78.48
2022-09-28T23:46:53.468Z,78.39
2022-09-28T23:54:04.811Z,78.79
